sensor_id;sensor_type;location;lat;lon;timestamp;P1;durP1;ratioP1;P2;durP2;ratioP2
11042;SDS011;5574;48.786;10.120;2024-02-28T00:00:13;21.87;;;16.27;;
11042;SDS011;5574;48.786;10.120;2024-02-28T00:02:41;19.23;;;15.30;;
11042;SDS011;5574;48.786;10.120;2024-02-28T00:05:08;22.03;;;16.83;;
11042;SDS011;5574;48.786;10.120;2024-02-28T00:07:35;21.63;;;15.93;;
11042;SDS011;5574;48.786;10.120;2024-02-28T00:10:01;20.93;;;16.23;;
11042;SDS011;5574;48.786;10.120;2024-02-28T00:12:28;21.23;;;16.13;;
11042;SDS011;5574;48.786;10.120;2024-02-28T00:14:55;23.33;;;16.77;;
11042;SDS011;5574;48.786;10.120;2024-02-28T00:17:23;21.83;;;16.73;;
11042;SDS011;5574;48.786;10.120;2024-02-28T00:19:50;21.60;;;16.80;;
11042;SDS011;5574;48.786;10.120;2024-02-28T00:22:17;22.73;;;16.80;;
11042;SDS011;5574;48.786;10.120;2024-02-28T00:24:45;22.87;;;16.30;;
11042;SDS011;5574;48.786;10.120;2024-02-28T00:27:11;24.63;;;17.87;;
11042;SDS011;5574;48.786;10.120;2024-02-28T00:29:38;22.37;;;17.10;;
11042;SDS011;5574;48.786;10.120;2024-02-28T00:32:05;23.17;;;17.03;;
11042;SDS011;5574;48.786;10.120;2024-02-28T00:34:33;24.17;;;17.43;;
11042;SDS011;5574;48.786;10.120;2024-02-28T00:37:00;24.50;;;18.23;;
11042;SDS011;5574;48.786;10.120;2024-02-28T00:39:27;23.73;;;17.53;;
11042;SDS011;5574;48.786;10.120;2024-02-28T00:41:53;24.93;;;18.43;;
11042;SDS011;5574;48.786;10.120;2024-02-28T00:44:20;23.00;;;17.30;;
11042;SDS011;5574;48.786;10.120;2024-02-28T00:46:46;23.57;;;17.67;;
11042;SDS011;5574;48.786;10.120;2024-02-28T00:49:13;23.60;;;17.40;;
11042;SDS011;5574;48.786;10.120;2024-02-28T00:51:41;22.93;;;17.53;;
11042;SDS011;5574;48.786;10.120;2024-02-28T00:54:08;22.77;;;17.20;;
11042;SDS011;5574;48.786;10.120;2024-02-28T00:56:35;24.47;;;18.07;;
11042;SDS011;5574;48.786;10.120;2024-02-28T00:59:02;24.77;;;17.13;;
11042;SDS011;5574;48.786;10.120;2024-02-28T01:01:28;22.93;;;17.20;;
11042;SDS011;5574;48.786;10.120;2024-02-28T01:03:55;22.13;;;16.77;;
11042;SDS011;5574;48.786;10.120;2024-02-28T01:06:22;24.37;;;18.47;;
11042;SDS011;5574;48.786;10.120;2024-02-28T01:08:50;25.27;;;18.73;;
11042;SDS011;5574;48.786;10.120;2024-02-28T01:11:16;26.27;;;18.13;;
11042;SDS011;5574;48.786;10.120;2024-02-28T01:13:43;22.60;;;17.90;;
11042;SDS011;5574;48.786;10.120;2024-02-28T01:16:10;24.33;;;17.87;;
11042;SDS011;5574;48.786;10.120;2024-02-28T01:18:36;23.80;;;17.87;;
11042;SDS011;5574;48.786;10.120;2024-02-28T01:21:03;22.23;;;17.13;;
11042;SDS011;5574;48.786;10.120;2024-02-28T01:23:30;24.43;;;17.47;;
11042;SDS011;5574;48.786;10.120;2024-02-28T01:25:58;23.53;;;17.90;;
11042;SDS011;5574;48.786;10.120;2024-02-28T01:28:28;24.60;;;17.43;;
11042;SDS011;5574;48.786;10.120;2024-02-28T01:30:54;25.90;;;18.67;;
11042;SDS011;5574;48.786;10.120;2024-02-28T01:33:21;23.80;;;18.03;;
11042;SDS011;5574;48.786;10.120;2024-02-28T01:35:48;25.10;;;18.40;;
11042;SDS011;5574;48.786;10.120;2024-02-28T01:38:14;22.97;;;17.03;;
11042;SDS011;5574;48.786;10.120;2024-02-28T01:40:43;24.80;;;18.37;;
11042;SDS011;5574;48.786;10.120;2024-02-28T01:43:12;24.43;;;17.43;;
11042;SDS011;5574;48.786;10.120;2024-02-28T01:45:39;25.70;;;18.07;;
11042;SDS011;5574;48.786;10.120;2024-02-28T01:48:06;24.40;;;17.57;;
11042;SDS011;5574;48.786;10.120;2024-02-28T01:50:35;21.23;;;16.03;;
11042;SDS011;5574;48.786;10.120;2024-02-28T01:53:03;26.10;;;18.17;;
11042;SDS011;5574;48.786;10.120;2024-02-28T01:55:30;22.77;;;16.90;;
11042;SDS011;5574;48.786;10.120;2024-02-28T01:57:57;27.30;;;17.63;;
11042;SDS011;5574;48.786;10.120;2024-02-28T02:00:25;23.27;;;16.87;;
11042;SDS011;5574;48.786;10.120;2024-02-28T02:02:54;24.13;;;16.63;;
11042;SDS011;5574;48.786;10.120;2024-02-28T02:05:21;23.00;;;17.20;;
11042;SDS011;5574;48.786;10.120;2024-02-28T02:07:47;21.07;;;15.40;;
11042;SDS011;5574;48.786;10.120;2024-02-28T02:10:14;23.43;;;16.40;;
11042;SDS011;5574;48.786;10.120;2024-02-28T02:12:41;21.53;;;16.23;;
11042;SDS011;5574;48.786;10.120;2024-02-28T02:15:08;22.00;;;16.67;;
11042;SDS011;5574;48.786;10.120;2024-02-28T02:17:36;21.10;;;15.37;;
11042;SDS011;5574;48.786;10.120;2024-02-28T02:20:03;20.40;;;15.07;;
11042;SDS011;5574;48.786;10.120;2024-02-28T02:22:33;20.50;;;15.00;;
11042;SDS011;5574;48.786;10.120;2024-02-28T02:25:02;20.87;;;14.73;;
11042;SDS011;5574;48.786;10.120;2024-02-28T02:27:29;20.20;;;15.60;;
11042;SDS011;5574;48.786;10.120;2024-02-28T02:29:56;23.90;;;16.63;;
11042;SDS011;5574;48.786;10.120;2024-02-28T02:32:22;19.53;;;14.33;;
11042;SDS011;5574;48.786;10.120;2024-02-28T02:34:49;20.70;;;15.33;;
11042;SDS011;5574;48.786;10.120;2024-02-28T02:37:16;22.63;;;15.87;;
11042;SDS011;5574;48.786;10.120;2024-02-28T02:39:44;19.93;;;16.17;;
11042;SDS011;5574;48.786;10.120;2024-02-28T02:42:11;22.17;;;16.33;;
11042;SDS011;5574;48.786;10.120;2024-02-28T02:44:39;22.63;;;15.90;;
11042;SDS011;5574;48.786;10.120;2024-02-28T02:47:06;22.90;;;16.87;;
11042;SDS011;5574;48.786;10.120;2024-02-28T02:49:33;21.73;;;16.37;;
11042;SDS011;5574;48.786;10.120;2024-02-28T02:51:59;21.50;;;16.20;;
11042;SDS011;5574;48.786;10.120;2024-02-28T02:54:26;21.53;;;15.93;;
11042;SDS011;5574;48.786;10.120;2024-02-28T02:56:54;19.70;;;15.30;;
11042;SDS011;5574;48.786;10.120;2024-02-28T02:59:21;19.17;;;15.10;;
11042;SDS011;5574;48.786;10.120;2024-02-28T03:01:49;20.77;;;15.67;;
11042;SDS011;5574;48.786;10.120;2024-02-28T03:04:16;20.40;;;15.70;;
11042;SDS011;5574;48.786;10.120;2024-02-28T03:06:42;19.90;;;14.87;;
11042;SDS011;5574;48.786;10.120;2024-02-28T03:09:09;18.30;;;14.53;;
11042;SDS011;5574;48.786;10.120;2024-02-28T03:11:36;19.03;;;14.40;;
11042;SDS011;5574;48.786;10.120;2024-02-28T03:14:04;17.37;;;14.13;;
11042;SDS011;5574;48.786;10.120;2024-02-28T03:16:31;18.00;;;14.40;;
11042;SDS011;5574;48.786;10.120;2024-02-28T03:19:02;19.27;;;15.10;;
11042;SDS011;5574;48.786;10.120;2024-02-28T03:21:29;18.87;;;14.47;;
11042;SDS011;5574;48.786;10.120;2024-02-28T03:23:55;20.03;;;15.37;;
11042;SDS011;5574;48.786;10.120;2024-02-28T03:26:22;19.53;;;14.87;;
11042;SDS011;5574;48.786;10.120;2024-02-28T03:28:49;19.33;;;15.77;;
11042;SDS011;5574;48.786;10.120;2024-02-28T03:31:17;20.13;;;15.23;;
11042;SDS011;5574;48.786;10.120;2024-02-28T03:33:44;21.23;;;15.37;;
11042;SDS011;5574;48.786;10.120;2024-02-28T03:36:12;19.83;;;15.57;;
11042;SDS011;5574;48.786;10.120;2024-02-28T03:38:38;19.53;;;15.00;;
11042;SDS011;5574;48.786;10.120;2024-02-28T03:41:05;21.20;;;16.40;;
11042;SDS011;5574;48.786;10.120;2024-02-28T03:43:32;20.77;;;15.33;;
11042;SDS011;5574;48.786;10.120;2024-02-28T03:45:59;20.43;;;15.73;;
11042;SDS011;5574;48.786;10.120;2024-02-28T03:48:27;22.73;;;16.40;;
11042;SDS011;5574;48.786;10.120;2024-02-28T03:50:53;21.10;;;14.93;;
11042;SDS011;5574;48.786;10.120;2024-02-28T03:53:20;23.47;;;16.20;;
11042;SDS011;5574;48.786;10.120;2024-02-28T03:55:47;22.13;;;16.13;;
11042;SDS011;5574;48.786;10.120;2024-02-28T03:58:13;21.10;;;15.57;;
11042;SDS011;5574;48.786;10.120;2024-02-28T04:00:40;22.70;;;17.50;;
11042;SDS011;5574;48.786;10.120;2024-02-28T04:03:09;21.70;;;16.10;;
11042;SDS011;5574;48.786;10.120;2024-02-28T04:05:37;23.40;;;16.43;;
11042;SDS011;5574;48.786;10.120;2024-02-28T04:08:04;24.83;;;17.17;;
11042;SDS011;5574;48.786;10.120;2024-02-28T04:10:31;24.17;;;17.50;;
11042;SDS011;5574;48.786;10.120;2024-02-28T04:12:58;22.83;;;16.83;;
11042;SDS011;5574;48.786;10.120;2024-02-28T04:15:24;24.03;;;16.90;;
11042;SDS011;5574;48.786;10.120;2024-02-28T04:17:51;23.20;;;17.30;;
11042;SDS011;5574;48.786;10.120;2024-02-28T04:20:18;24.33;;;17.57;;
11042;SDS011;5574;48.786;10.120;2024-02-28T04:22:46;24.77;;;18.40;;
11042;SDS011;5574;48.786;10.120;2024-02-28T04:25:13;23.80;;;18.17;;
11042;SDS011;5574;48.786;10.120;2024-02-28T04:27:39;24.83;;;17.30;;
11042;SDS011;5574;48.786;10.120;2024-02-28T04:30:06;24.03;;;17.07;;
11042;SDS011;5574;48.786;10.120;2024-02-28T04:32:33;22.17;;;15.83;;
11042;SDS011;5574;48.786;10.120;2024-02-28T04:35:00;24.10;;;17.17;;
11042;SDS011;5574;48.786;10.120;2024-02-28T04:37:27;24.30;;;17.57;;
11042;SDS011;5574;48.786;10.120;2024-02-28T04:39:55;24.53;;;17.73;;
11042;SDS011;5574;48.786;10.120;2024-02-28T04:42:22;27.07;;;17.97;;
11042;SDS011;5574;48.786;10.120;2024-02-28T04:44:49;25.43;;;18.40;;
11042;SDS011;5574;48.786;10.120;2024-02-28T04:47:15;24.30;;;17.93;;
11042;SDS011;5574;48.786;10.120;2024-02-28T04:49:42;26.10;;;18.20;;
11042;SDS011;5574;48.786;10.120;2024-02-28T04:52:09;23.87;;;17.27;;
11042;SDS011;5574;48.786;10.120;2024-02-28T04:54:35;25.47;;;17.77;;
11042;SDS011;5574;48.786;10.120;2024-02-28T04:57:03;26.93;;;19.83;;
11042;SDS011;5574;48.786;10.120;2024-02-28T04:59:30;23.57;;;17.97;;
11042;SDS011;5574;48.786;10.120;2024-02-28T05:01:57;25.87;;;18.37;;
11042;SDS011;5574;48.786;10.120;2024-02-28T05:04:24;27.00;;;18.60;;
11042;SDS011;5574;48.786;10.120;2024-02-28T05:06:51;23.77;;;17.93;;
11042;SDS011;5574;48.786;10.120;2024-02-28T05:09:18;25.20;;;18.50;;
11042;SDS011;5574;48.786;10.120;2024-02-28T05:11:45;25.47;;;18.43;;
11042;SDS011;5574;48.786;10.120;2024-02-28T05:14:13;23.50;;;17.63;;
11042;SDS011;5574;48.786;10.120;2024-02-28T05:16:40;26.93;;;18.60;;
11042;SDS011;5574;48.786;10.120;2024-02-28T05:19:06;26.60;;;18.27;;
11042;SDS011;5574;48.786;10.120;2024-02-28T05:21:39;25.13;;;17.83;;
11042;SDS011;5574;48.786;10.120;2024-02-28T05:24:06;25.67;;;18.47;;
11042;SDS011;5574;48.786;10.120;2024-02-28T05:26:34;26.67;;;18.77;;
11042;SDS011;5574;48.786;10.120;2024-02-28T05:29:01;24.23;;;18.40;;
11042;SDS011;5574;48.786;10.120;2024-02-28T05:31:30;27.37;;;18.97;;
11042;SDS011;5574;48.786;10.120;2024-02-28T05:33:57;24.03;;;17.87;;
11042;SDS011;5574;48.786;10.120;2024-02-28T05:36:25;26.43;;;18.37;;
11042;SDS011;5574;48.786;10.120;2024-02-28T05:38:53;28.83;;;18.90;;
11042;SDS011;5574;48.786;10.120;2024-02-28T05:41:21;25.57;;;18.10;;
11042;SDS011;5574;48.786;10.120;2024-02-28T05:43:48;26.63;;;18.33;;
11042;SDS011;5574;48.786;10.120;2024-02-28T05:46:16;26.40;;;17.93;;
11042;SDS011;5574;48.786;10.120;2024-02-28T05:48:44;25.40;;;18.17;;
11042;SDS011;5574;48.786;10.120;2024-02-28T05:51:11;27.50;;;19.17;;
11042;SDS011;5574;48.786;10.120;2024-02-28T05:53:38;27.90;;;18.87;;
11042;SDS011;5574;48.786;10.120;2024-02-28T05:56:05;26.97;;;19.37;;
11042;SDS011;5574;48.786;10.120;2024-02-28T05:58:38;27.20;;;19.03;;
11042;SDS011;5574;48.786;10.120;2024-02-28T06:01:05;27.13;;;18.47;;
11042;SDS011;5574;48.786;10.120;2024-02-28T06:03:32;26.80;;;17.63;;
11042;SDS011;5574;48.786;10.120;2024-02-28T06:06:00;25.47;;;17.33;;
11042;SDS011;5574;48.786;10.120;2024-02-28T06:08:29;25.13;;;17.03;;
11042;SDS011;5574;48.786;10.120;2024-02-28T06:10:57;26.03;;;18.07;;
11042;SDS011;5574;48.786;10.120;2024-02-28T06:13:23;25.33;;;17.67;;
11042;SDS011;5574;48.786;10.120;2024-02-28T06:15:50;25.20;;;16.03;;
11042;SDS011;5574;48.786;10.120;2024-02-28T06:18:17;25.93;;;16.90;;
11042;SDS011;5574;48.786;10.120;2024-02-28T06:20:43;26.00;;;17.47;;
11042;SDS011;5574;48.786;10.120;2024-02-28T06:23:12;24.20;;;16.63;;
11042;SDS011;5574;48.786;10.120;2024-02-28T06:25:38;23.73;;;16.50;;
11042;SDS011;5574;48.786;10.120;2024-02-28T06:28:05;24.97;;;16.40;;
11042;SDS011;5574;48.786;10.120;2024-02-28T06:30:32;25.17;;;16.77;;
11042;SDS011;5574;48.786;10.120;2024-02-28T06:32:59;25.23;;;16.80;;
11042;SDS011;5574;48.786;10.120;2024-02-28T06:35:26;23.23;;;16.10;;
11042;SDS011;5574;48.786;10.120;2024-02-28T06:37:52;26.20;;;17.23;;
11042;SDS011;5574;48.786;10.120;2024-02-28T06:40:21;22.80;;;15.50;;
11042;SDS011;5574;48.786;10.120;2024-02-28T06:42:47;26.83;;;16.43;;
11042;SDS011;5574;48.786;10.120;2024-02-28T06:45:14;22.47;;;15.83;;
11042;SDS011;5574;48.786;10.120;2024-02-28T06:47:42;24.17;;;18.03;;
11042;SDS011;5574;48.786;10.120;2024-02-28T06:50:10;24.37;;;16.40;;
11042;SDS011;5574;48.786;10.120;2024-02-28T06:52:37;24.03;;;16.17;;
11042;SDS011;5574;48.786;10.120;2024-02-28T06:55:03;26.77;;;18.87;;
11042;SDS011;5574;48.786;10.120;2024-02-28T06:57:36;26.60;;;18.30;;
11042;SDS011;5574;48.786;10.120;2024-02-28T07:00:04;23.90;;;16.17;;
11042;SDS011;5574;48.786;10.120;2024-02-28T07:02:33;24.30;;;16.50;;
11042;SDS011;5574;48.786;10.120;2024-02-28T07:04:59;25.57;;;18.57;;
11042;SDS011;5574;48.786;10.120;2024-02-28T07:07:26;25.63;;;17.13;;
11042;SDS011;5574;48.786;10.120;2024-02-28T07:09:53;24.00;;;16.63;;
11042;SDS011;5574;48.786;10.120;2024-02-28T07:12:19;27.60;;;18.03;;
11042;SDS011;5574;48.786;10.120;2024-02-28T07:14:47;23.70;;;16.43;;
11042;SDS011;5574;48.786;10.120;2024-02-28T07:17:14;24.53;;;16.03;;
11042;SDS011;5574;48.786;10.120;2024-02-28T07:19:41;27.87;;;16.93;;
11042;SDS011;5574;48.786;10.120;2024-02-28T07:22:07;25.47;;;16.57;;
11042;SDS011;5574;48.786;10.120;2024-02-28T07:24:34;27.20;;;17.13;;
11042;SDS011;5574;48.786;10.120;2024-02-28T07:27:02;24.93;;;18.00;;
11042;SDS011;5574;48.786;10.120;2024-02-28T07:29:28;27.03;;;18.53;;
11042;SDS011;5574;48.786;10.120;2024-02-28T07:31:56;27.27;;;18.13;;
11042;SDS011;5574;48.786;10.120;2024-02-28T07:34:23;27.40;;;18.77;;
11042;SDS011;5574;48.786;10.120;2024-02-28T07:36:50;26.17;;;17.73;;
11042;SDS011;5574;48.786;10.120;2024-02-28T07:39:16;29.03;;;18.27;;
11042;SDS011;5574;48.786;10.120;2024-02-28T07:41:43;23.87;;;16.63;;
11042;SDS011;5574;48.786;10.120;2024-02-28T07:44:10;26.13;;;17.80;;
11042;SDS011;5574;48.786;10.120;2024-02-28T07:46:37;28.20;;;17.80;;
11042;SDS011;5574;48.786;10.120;2024-02-28T07:49:05;24.10;;;17.37;;
11042;SDS011;5574;48.786;10.120;2024-02-28T07:51:32;26.73;;;16.47;;
11042;SDS011;5574;48.786;10.120;2024-02-28T07:53:59;27.07;;;17.80;;
11042;SDS011;5574;48.786;10.120;2024-02-28T07:56:25;29.83;;;19.30;;
11042;SDS011;5574;48.786;10.120;2024-02-28T07:58:52;26.90;;;18.23;;
11042;SDS011;5574;48.786;10.120;2024-02-28T08:01:19;26.97;;;18.00;;
11042;SDS011;5574;48.786;10.120;2024-02-28T08:03:47;24.90;;;17.57;;
11042;SDS011;5574;48.786;10.120;2024-02-28T08:06:15;29.37;;;18.83;;
11042;SDS011;5574;48.786;10.120;2024-02-28T08:08:43;25.53;;;16.90;;
11042;SDS011;5574;48.786;10.120;2024-02-28T08:11:11;25.87;;;16.97;;
11042;SDS011;5574;48.786;10.120;2024-02-28T08:13:38;29.23;;;17.80;;
11042;SDS011;5574;48.786;10.120;2024-02-28T08:16:05;27.47;;;17.47;;
11042;SDS011;5574;48.786;10.120;2024-02-28T08:18:34;26.13;;;16.77;;
11042;SDS011;5574;48.786;10.120;2024-02-28T08:21:01;28.60;;;17.30;;
11042;SDS011;5574;48.786;10.120;2024-02-28T08:23:30;26.07;;;17.73;;
11042;SDS011;5574;48.786;10.120;2024-02-28T08:25:57;23.97;;;17.13;;
11042;SDS011;5574;48.786;10.120;2024-02-28T08:28:24;26.60;;;17.80;;
11042;SDS011;5574;48.786;10.120;2024-02-28T08:30:51;28.17;;;17.97;;
11042;SDS011;5574;48.786;10.120;2024-02-28T08:33:17;24.57;;;17.63;;
11042;SDS011;5574;48.786;10.120;2024-02-28T08:35:44;23.97;;;17.03;;
11042;SDS011;5574;48.786;10.120;2024-02-28T08:38:11;24.40;;;16.50;;
11042;SDS011;5574;48.786;10.120;2024-02-28T08:40:39;27.37;;;17.67;;
11042;SDS011;5574;48.786;10.120;2024-02-28T08:43:06;25.20;;;17.27;;
11042;SDS011;5574;48.786;10.120;2024-02-28T08:45:32;23.37;;;16.83;;
11042;SDS011;5574;48.786;10.120;2024-02-28T08:47:59;25.27;;;18.57;;
11042;SDS011;5574;48.786;10.120;2024-02-28T08:50:27;28.37;;;17.10;;
11042;SDS011;5574;48.786;10.120;2024-02-28T08:52:54;26.00;;;16.97;;
11042;SDS011;5574;48.786;10.120;2024-02-28T08:55:20;27.93;;;18.00;;
11042;SDS011;5574;48.786;10.120;2024-02-28T08:57:48;30.07;;;16.03;;
11042;SDS011;5574;48.786;10.120;2024-02-28T09:00:15;27.93;;;17.63;;
11042;SDS011;5574;48.786;10.120;2024-02-28T09:02:43;23.53;;;16.50;;
11042;SDS011;5574;48.786;10.120;2024-02-28T09:05:10;27.17;;;16.93;;
11042;SDS011;5574;48.786;10.120;2024-02-28T09:07:36;25.30;;;16.37;;
11042;SDS011;5574;48.786;10.120;2024-02-28T09:10:03;24.90;;;16.63;;
11042;SDS011;5574;48.786;10.120;2024-02-28T09:12:31;22.50;;;15.80;;
11042;SDS011;5574;48.786;10.120;2024-02-28T09:14:59;27.87;;;17.20;;
11042;SDS011;5574;48.786;10.120;2024-02-28T09:17:26;29.87;;;17.43;;
11042;SDS011;5574;48.786;10.120;2024-02-28T09:19:52;24.27;;;15.80;;
11042;SDS011;5574;48.786;10.120;2024-02-28T09:22:19;28.03;;;16.60;;
11042;SDS011;5574;48.786;10.120;2024-02-28T09:24:46;26.27;;;16.93;;
11042;SDS011;5574;48.786;10.120;2024-02-28T09:27:13;24.63;;;16.03;;
11042;SDS011;5574;48.786;10.120;2024-02-28T09:29:40;27.83;;;17.53;;
11042;SDS011;5574;48.786;10.120;2024-02-28T09:32:08;27.30;;;17.20;;
11042;SDS011;5574;48.786;10.120;2024-02-28T09:34:35;28.10;;;18.17;;
11042;SDS011;5574;48.786;10.120;2024-02-28T09:37:03;26.30;;;18.97;;
11042;SDS011;5574;48.786;10.120;2024-02-28T09:39:30;29.13;;;18.50;;
11042;SDS011;5574;48.786;10.120;2024-02-28T09:41:56;30.73;;;18.57;;
11042;SDS011;5574;48.786;10.120;2024-02-28T09:44:23;24.57;;;16.97;;
11042;SDS011;5574;48.786;10.120;2024-02-28T09:46:51;27.27;;;17.53;;
11042;SDS011;5574;48.786;10.120;2024-02-28T09:49:19;31.20;;;19.10;;
11042;SDS011;5574;48.786;10.120;2024-02-28T09:51:48;28.13;;;18.67;;
11042;SDS011;5574;48.786;10.120;2024-02-28T09:54:16;28.50;;;18.03;;
11042;SDS011;5574;48.786;10.120;2024-02-28T09:56:42;29.17;;;18.83;;
11042;SDS011;5574;48.786;10.120;2024-02-28T09:59:10;27.17;;;18.10;;
11042;SDS011;5574;48.786;10.120;2024-02-28T10:01:41;28.53;;;18.37;;
11042;SDS011;5574;48.786;10.120;2024-02-28T10:04:09;31.27;;;19.17;;
11042;SDS011;5574;48.786;10.120;2024-02-28T10:06:40;30.77;;;19.00;;
11042;SDS011;5574;48.786;10.120;2024-02-28T10:09:06;26.27;;;17.40;;
11042;SDS011;5574;48.786;10.120;2024-02-28T10:11:35;32.93;;;19.00;;
11042;SDS011;5574;48.786;10.120;2024-02-28T10:14:02;28.33;;;18.40;;
11042;SDS011;5574;48.786;10.120;2024-02-28T10:16:29;28.00;;;18.47;;
11042;SDS011;5574;48.786;10.120;2024-02-28T10:18:56;28.07;;;18.60;;
11042;SDS011;5574;48.786;10.120;2024-02-28T10:21:23;31.03;;;18.50;;
11042;SDS011;5574;48.786;10.120;2024-02-28T10:23:52;28.33;;;18.53;;
11042;SDS011;5574;48.786;10.120;2024-02-28T10:26:19;30.47;;;18.87;;
11042;SDS011;5574;48.786;10.120;2024-02-28T10:28:45;27.53;;;19.33;;
11042;SDS011;5574;48.786;10.120;2024-02-28T10:31:12;27.43;;;18.53;;
11042;SDS011;5574;48.786;10.120;2024-02-28T10:33:41;31.37;;;19.07;;
11042;SDS011;5574;48.786;10.120;2024-02-28T10:36:08;30.87;;;19.53;;
11042;SDS011;5574;48.786;10.120;2024-02-28T10:38:36;32.10;;;18.30;;
11042;SDS011;5574;48.786;10.120;2024-02-28T10:41:04;28.83;;;19.80;;
11042;SDS011;5574;48.786;10.120;2024-02-28T10:43:32;28.37;;;17.80;;
11042;SDS011;5574;48.786;10.120;2024-02-28T10:45:59;32.63;;;19.57;;
11042;SDS011;5574;48.786;10.120;2024-02-28T10:48:27;29.97;;;19.37;;
11042;SDS011;5574;48.786;10.120;2024-02-28T10:50:53;27.87;;;18.17;;
11042;SDS011;5574;48.786;10.120;2024-02-28T10:53:20;30.33;;;19.07;;
11042;SDS011;5574;48.786;10.120;2024-02-28T10:55:49;28.03;;;17.87;;
11042;SDS011;5574;48.786;10.120;2024-02-28T10:58:21;27.77;;;18.33;;
11042;SDS011;5574;48.786;10.120;2024-02-28T11:00:51;28.30;;;19.17;;
11042;SDS011;5574;48.786;10.120;2024-02-28T11:03:18;28.73;;;17.90;;
11042;SDS011;5574;48.786;10.120;2024-02-28T11:05:45;26.77;;;17.63;;
11042;SDS011;5574;48.786;10.120;2024-02-28T11:08:19;29.90;;;20.27;;
11042;SDS011;5574;48.786;10.120;2024-02-28T11:10:47;26.67;;;17.97;;
11042;SDS011;5574;48.786;10.120;2024-02-28T11:13:22;30.47;;;18.43;;
11042;SDS011;5574;48.786;10.120;2024-02-28T11:15:50;28.00;;;18.03;;
11042;SDS011;5574;48.786;10.120;2024-02-28T11:18:16;25.37;;;17.87;;
11042;SDS011;5574;48.786;10.120;2024-02-28T11:20:43;27.83;;;18.50;;
11042;SDS011;5574;48.786;10.120;2024-02-28T11:23:11;25.97;;;17.03;;
11042;SDS011;5574;48.786;10.120;2024-02-28T11:25:39;24.70;;;15.57;;
11042;SDS011;5574;48.786;10.120;2024-02-28T11:28:06;24.00;;;16.37;;
11042;SDS011;5574;48.786;10.120;2024-02-28T11:30:34;23.33;;;15.30;;
11042;SDS011;5574;48.786;10.120;2024-02-28T11:33:01;22.83;;;15.13;;
11042;SDS011;5574;48.786;10.120;2024-02-28T11:35:28;24.37;;;15.40;;
11042;SDS011;5574;48.786;10.120;2024-02-28T11:37:54;26.30;;;15.93;;
11042;SDS011;5574;48.786;10.120;2024-02-28T11:40:22;23.47;;;15.57;;
11042;SDS011;5574;48.786;10.120;2024-02-28T11:42:50;23.00;;;14.73;;
11042;SDS011;5574;48.786;10.120;2024-02-28T11:45:16;26.03;;;16.47;;
11042;SDS011;5574;48.786;10.120;2024-02-28T11:47:45;27.13;;;16.47;;
11042;SDS011;5574;48.786;10.120;2024-02-28T11:50:12;21.90;;;15.17;;
11042;SDS011;5574;48.786;10.120;2024-02-28T11:52:40;23.60;;;15.97;;
11042;SDS011;5574;48.786;10.120;2024-02-28T11:55:07;21.40;;;15.30;;
11042;SDS011;5574;48.786;10.120;2024-02-28T11:57:34;23.93;;;15.17;;
11042;SDS011;5574;48.786;10.120;2024-02-28T12:00:03;22.93;;;15.00;;
11042;SDS011;5574;48.786;10.120;2024-02-28T12:02:31;23.33;;;15.30;;
11042;SDS011;5574;48.786;10.120;2024-02-28T12:05:01;20.50;;;13.77;;
11042;SDS011;5574;48.786;10.120;2024-02-28T12:07:29;22.00;;;13.97;;
11042;SDS011;5574;48.786;10.120;2024-02-28T12:09:55;22.17;;;14.93;;
11042;SDS011;5574;48.786;10.120;2024-02-28T12:12:22;24.37;;;15.87;;
11042;SDS011;5574;48.786;10.120;2024-02-28T12:14:49;22.20;;;15.70;;
11042;SDS011;5574;48.786;10.120;2024-02-28T12:17:16;24.37;;;14.70;;
11042;SDS011;5574;48.786;10.120;2024-02-28T12:19:43;23.57;;;15.10;;
11042;SDS011;5574;48.786;10.120;2024-02-28T12:22:11;31.43;;;16.67;;
11042;SDS011;5574;48.786;10.120;2024-02-28T12:24:38;19.87;;;14.70;;
11042;SDS011;5574;48.786;10.120;2024-02-28T12:27:05;25.63;;;15.10;;
11042;SDS011;5574;48.786;10.120;2024-02-28T12:29:31;19.70;;;14.53;;
11042;SDS011;5574;48.786;10.120;2024-02-28T12:31:58;22.03;;;14.57;;
11042;SDS011;5574;48.786;10.120;2024-02-28T12:34:25;21.40;;;15.00;;
11042;SDS011;5574;48.786;10.120;2024-02-28T12:36:52;25.83;;;15.97;;
11042;SDS011;5574;48.786;10.120;2024-02-28T12:39:20;20.43;;;15.07;;
11042;SDS011;5574;48.786;10.120;2024-02-28T12:41:47;25.87;;;15.80;;
11042;SDS011;5574;48.786;10.120;2024-02-28T12:44:14;29.53;;;15.57;;
11042;SDS011;5574;48.786;10.120;2024-02-28T12:46:41;22.33;;;15.70;;
11042;SDS011;5574;48.786;10.120;2024-02-28T12:49:07;23.70;;;15.90;;
11042;SDS011;5574;48.786;10.120;2024-02-28T12:51:38;26.83;;;15.87;;
11042;SDS011;5574;48.786;10.120;2024-02-28T12:54:06;22.50;;;16.10;;
11042;SDS011;5574;48.786;10.120;2024-02-28T12:56:35;23.37;;;15.63;;
11042;SDS011;5574;48.786;10.120;2024-02-28T12:59:01;26.47;;;16.60;;
11042;SDS011;5574;48.786;10.120;2024-02-28T13:01:28;20.87;;;14.77;;
11042;SDS011;5574;48.786;10.120;2024-02-28T13:03:55;22.20;;;15.47;;
11042;SDS011;5574;48.786;10.120;2024-02-28T13:06:22;23.23;;;14.93;;
11042;SDS011;5574;48.786;10.120;2024-02-28T13:08:49;23.73;;;15.63;;
11042;SDS011;5574;48.786;10.120;2024-02-28T13:11:17;28.17;;;16.03;;
11042;SDS011;5574;48.786;10.120;2024-02-28T13:13:46;23.37;;;14.97;;
11042;SDS011;5574;48.786;10.120;2024-02-28T13:16:14;62.83;;;18.70;;
11042;SDS011;5574;48.786;10.120;2024-02-28T13:18:41;22.30;;;15.93;;
11042;SDS011;5574;48.786;10.120;2024-02-28T13:21:08;28.80;;;17.40;;
11042;SDS011;5574;48.786;10.120;2024-02-28T13:23:35;24.47;;;16.33;;
11042;SDS011;5574;48.786;10.120;2024-02-28T13:26:03;23.97;;;16.30;;
11042;SDS011;5574;48.786;10.120;2024-02-28T13:28:30;22.30;;;16.90;;
11042;SDS011;5574;48.786;10.120;2024-02-28T13:30:58;24.47;;;17.70;;
11042;SDS011;5574;48.786;10.120;2024-02-28T13:33:26;25.83;;;17.87;;
11042;SDS011;5574;48.786;10.120;2024-02-28T13:35:53;26.37;;;18.93;;
11042;SDS011;5574;48.786;10.120;2024-02-28T13:38:20;20.53;;;15.20;;
11042;SDS011;5574;48.786;10.120;2024-02-28T13:40:47;30.23;;;18.30;;
11042;SDS011;5574;48.786;10.120;2024-02-28T13:43:15;25.50;;;18.17;;
11042;SDS011;5574;48.786;10.120;2024-02-28T13:45:45;25.37;;;17.80;;
11042;SDS011;5574;48.786;10.120;2024-02-28T13:48:16;24.57;;;17.80;;
11042;SDS011;5574;48.786;10.120;2024-02-28T13:50:43;23.03;;;17.47;;
11042;SDS011;5574;48.786;10.120;2024-02-28T13:53:10;22.83;;;16.50;;
11042;SDS011;5574;48.786;10.120;2024-02-28T13:55:37;23.73;;;16.53;;
11042;SDS011;5574;48.786;10.120;2024-02-28T13:58:04;23.13;;;16.93;;
11042;SDS011;5574;48.786;10.120;2024-02-28T14:00:31;28.03;;;18.53;;
11042;SDS011;5574;48.786;10.120;2024-02-28T14:02:59;28.53;;;18.63;;
11042;SDS011;5574;48.786;10.120;2024-02-28T14:05:27;31.30;;;17.63;;
11042;SDS011;5574;48.786;10.120;2024-02-28T14:07:54;22.33;;;16.37;;
11042;SDS011;5574;48.786;10.120;2024-02-28T14:10:22;23.53;;;16.10;;
11042;SDS011;5574;48.786;10.120;2024-02-28T14:12:48;22.70;;;16.90;;
11042;SDS011;5574;48.786;10.120;2024-02-28T14:15:17;24.33;;;16.07;;
11042;SDS011;5574;48.786;10.120;2024-02-28T14:17:44;25.67;;;15.27;;
11042;SDS011;5574;48.786;10.120;2024-02-28T14:20:11;22.63;;;14.87;;